sensor_id;sensor_type;location;lat;lon;timestamp;pressure;altitude;pressure_sealevel;temperature;humidity
73860;BME280;62197;51.632;13.700;2024-03-23T00:53:07;99464.19;;;9.11;100.00
73860;BME280;62197;51.632;13.700;2024-03-23T00:55:32;99472.31;;;9.18;100.00
73860;BME280;62197;51.632;13.700;2024-03-23T00:57:58;99463.63;;;9.17;100.00
73860;BME280;62197;51.632;13.700;2024-03-23T01:00:23;99460.16;;;9.17;100.00
73860;BME280;62197;51.632;13.700;2024-03-23T01:02:48;99462.34;;;9.21;100.00
73860;BME280;62197;51.632;13.700;2024-03-23T01:05:13;99459.28;;;9.26;100.00
73860;BME280;62197;51.632;13.700;2024-03-23T01:07:39;99455.63;;;9.37;100.00
73860;BME280;62197;51.632;13.700;2024-03-23T01:10:04;99452.63;;;9.32;100.00
73860;BME280;62197;51.632;13.700;2024-03-23T01:12:30;99447.38;;;9.32;100.00
73860;BME280;62197;51.632;13.700;2024-03-23T01:14:55;99446.03;;;9.27;100.00
73860;BME280;62197;51.632;13.700;2024-03-23T01:17:20;99445.78;;;9.21;100.00
73860;BME280;62197;51.632;13.700;2024-03-23T01:19:46;99431.06;;;9.10;100.00
73860;BME280;62197;51.632;13.700;2024-03-23T01:22:11;99432.72;;;9.11;100.00
73860;BME280;62197;51.632;13.700;2024-03-23T01:24:36;99434.75;;;9.17;100.00
73860;BME280;62197;51.632;13.700;2024-03-23T01:27:02;99429.31;;;9.28;100.00
73860;BME280;62197;51.632;13.700;2024-03-23T01:29:27;99431.84;;;9.38;100.00
73860;BME280;62197;51.632;13.700;2024-03-23T01:31:52;99427.50;;;9.29;100.00
73860;BME280;62197;51.632;13.700;2024-03-23T01:34:17;99428.91;;;9.23;100.00
73860;BME280;62197;51.632;13.700;2024-03-23T01:36:44;99423.72;;;9.14;100.00
73860;BME280;62197;51.632;13.700;2024-03-23T01:39:11;99427.47;;;9.11;100.00
73860;BME280;62197;51.632;13.700;2024-03-23T01:41:36;99423.03;;;9.12;100.00
73860;BME280;62197;51.632;13.700;2024-03-23T01:44:05;99417.50;;;9.15;100.00
73860;BME280;62197;51.632;13.700;2024-03-23T01:46:32;99414.06;;;9.14;100.00
73860;BME280;62197;51.632;13.700;2024-03-23T01:48:57;99418.09;;;9.09;100.00
73860;BME280;62197;51.632;13.700;2024-03-23T01:51:22;99414.63;;;9.08;100.00
73860;BME280;62197;51.632;13.700;2024-03-23T01:53:48;99407.16;;;9.13;100.00
73860;BME280;62197;51.632;13.700;2024-03-23T01:56:14;99404.63;;;9.21;100.00
73860;BME280;62197;51.632;13.700;2024-03-23T01:58:39;99395.78;;;9.22;100.00
73860;BME280;62197;51.632;13.700;2024-03-23T02:01:04;99386.56;;;9.18;100.00
73860;BME280;62197;51.632;13.700;2024-03-23T02:03:30;99391.66;;;9.20;100.00
73860;BME280;62197;51.632;13.700;2024-03-23T02:05:55;99390.00;;;9.19;100.00
73860;BME280;62197;51.632;13.700;2024-03-23T02:08:23;99380.91;;;9.13;100.00
73860;BME280;62197;51.632;13.700;2024-03-23T02:10:49;99364.88;;;9.16;100.00
73860;BME280;62197;51.632;13.700;2024-03-23T02:13:15;99366.25;;;9.20;100.00
73860;BME280;62197;51.632;13.700;2024-03-23T02:15:41;99366.25;;;9.20;100.00
73860;BME280;62197;51.632;13.700;2024-03-23T02:18:09;99360.75;;;9.14;100.00
73860;BME280;62197;51.632;13.700;2024-03-23T02:20:35;99355.16;;;9.44;100.00
73860;BME280;62197;51.632;13.700;2024-03-23T02:23:00;99347.72;;;9.40;100.00
73860;BME280;62197;51.632;13.700;2024-03-23T02:25:26;99343.38;;;9.31;100.00
73860;BME280;62197;51.632;13.700;2024-03-23T02:27:51;99333.19;;;9.27;100.00
73860;BME280;62197;51.632;13.700;2024-03-23T02:30:19;99331.84;;;9.23;100.00
73860;BME280;62197;51.632;13.700;2024-03-23T02:32:44;99333.28;;;9.36;100.00
73860;BME280;62197;51.632;13.700;2024-03-23T02:35:10;99345.91;;;9.05;100.00
73860;BME280;62197;51.632;13.700;2024-03-23T02:37:35;99339.28;;;8.46;100.00
73860;BME280;62197;51.632;13.700;2024-03-23T02:40:00;99349.44;;;8.12;100.00
73860;BME280;62197;51.632;13.700;2024-03-23T02:42:25;99361.72;;;7.92;100.00
73860;BME280;62197;51.632;13.700;2024-03-23T02:44:51;99349.31;;;7.94;100.00
73860;BME280;62197;51.632;13.700;2024-03-23T02:47:16;99355.53;;;7.83;100.00
73860;BME280;62197;51.632;13.700;2024-03-23T02:49:41;99347.16;;;7.60;100.00
73860;BME280;62197;51.632;13.700;2024-03-23T02:52:07;99331.16;;;7.44;100.00
73860;BME280;62197;51.632;13.700;2024-03-23T02:54:32;99325.53;;;7.39;100.00
73860;BME280;62197;51.632;13.700;2024-03-23T02:56:57;99327.03;;;7.42;100.00
73860;BME280;62197;51.632;13.700;2024-03-23T02:59:22;99328.13;;;7.39;100.00
73860;BME280;62197;51.632;13.700;2024-03-23T03:01:48;99331.69;;;7.28;100.00
73860;BME280;62197;51.632;13.700;2024-03-23T03:04:13;99325.94;;;7.25;100.00
73860;BME280;62197;51.632;13.700;2024-03-23T03:06:38;99319.63;;;7.27;100.00
73860;BME280;62197;51.632;13.700;2024-03-23T03:09:03;99299.09;;;7.23;100.00
73860;BME280;62197;51.632;13.700;2024-03-23T03:11:29;99303.09;;;7.17;100.00
73860;BME280;62197;51.632;13.700;2024-03-23T03:13:55;99319.19;;;7.22;100.00
73860;BME280;62197;51.632;13.700;2024-03-23T03:16:20;99315.75;;;7.22;100.00
73860;BME280;62197;51.632;13.700;2024-03-23T03:18:45;99311.50;;;7.21;100.00
73860;BME280;62197;51.632;13.700;2024-03-23T03:21:12;99303.09;;;7.27;100.00
73860;BME280;62197;51.632;13.700;2024-03-23T03:23:37;99297.03;;;7.26;100.00
73860;BME280;62197;51.632;13.700;2024-03-23T03:26:04;99304.88;;;7.17;100.00
73860;BME280;62197;51.632;13.700;2024-03-23T03:28:31;99309.97;;;7.18;100.00
73860;BME280;62197;51.632;13.700;2024-03-23T03:30:57;99298.38;;;7.30;100.00
73860;BME280;62197;51.632;13.700;2024-03-23T03:33:22;99300.88;;;7.32;99.81
73860;BME280;62197;51.632;13.700;2024-03-23T03:35:48;99290.84;;;7.27;99.85
73860;BME280;62197;51.632;13.700;2024-03-23T03:38:13;99287.38;;;7.37;99.76
73860;BME280;62197;51.632;13.700;2024-03-23T03:40:38;99291.91;;;7.35;99.59
73860;BME280;62197;51.632;13.700;2024-03-23T03:43:03;99276.63;;;7.49;99.59
73860;BME280;62197;51.632;13.700;2024-03-23T03:45:29;99276.78;;;7.48;98.66
73860;BME280;62197;51.632;13.700;2024-03-23T03:47:54;99280.50;;;7.45;98.70
73860;BME280;62197;51.632;13.700;2024-03-23T03:50:21;99293.84;;;7.42;98.04
73860;BME280;62197;51.632;13.700;2024-03-23T03:52:46;99283.38;;;7.52;98.51
73860;BME280;62197;51.632;13.700;2024-03-23T03:55:16;99275.38;;;7.73;97.84
73860;BME280;62197;51.632;13.700;2024-03-23T03:57:41;99266.69;;;7.72;97.98
73860;BME280;62197;51.632;13.700;2024-03-23T04:00:07;99274.16;;;7.67;98.08
73860;BME280;62197;51.632;13.700;2024-03-23T04:02:39;99275.94;;;7.57;97.53
73860;BME280;62197;51.632;13.700;2024-03-23T04:05:05;99270.84;;;7.55;97.17
73860;BME280;62197;51.632;13.700;2024-03-23T04:07:31;99271.69;;;7.37;97.50
73860;BME280;62197;51.632;13.700;2024-03-23T04:09:56;99266.31;;;7.28;96.85
73860;BME280;62197;51.632;13.700;2024-03-23T04:12:21;99255.06;;;7.18;97.07
73860;BME280;62197;51.632;13.700;2024-03-23T04:14:46;99253.53;;;7.06;97.71
73860;BME280;62197;51.632;13.700;2024-03-23T04:17:12;99252.28;;;7.10;97.79
73860;BME280;62197;51.632;13.700;2024-03-23T04:19:37;99253.00;;;7.22;97.11
73860;BME280;62197;51.632;13.700;2024-03-23T04:22:02;99240.31;;;7.27;98.12
73860;BME280;62197;51.632;13.700;2024-03-23T04:24:29;99240.44;;;7.35;98.05
73860;BME280;62197;51.632;13.700;2024-03-23T04:26:54;99246.22;;;7.39;97.91
73860;BME280;62197;51.632;13.700;2024-03-23T04:29:19;99241.38;;;7.44;97.57
73860;BME280;62197;51.632;13.700;2024-03-23T04:31:45;99233.31;;;7.27;96.31
73860;BME280;62197;51.632;13.700;2024-03-23T04:34:10;99241.94;;;7.38;96.89
73860;BME280;62197;51.632;13.700;2024-03-23T04:36:35;99241.13;;;7.37;97.06
73860;BME280;62197;51.632;13.700;2024-03-23T04:39:01;99230.09;;;7.34;96.66
73860;BME280;62197;51.632;13.700;2024-03-23T04:41:26;99225.28;;;7.39;96.44
73860;BME280;62197;51.632;13.700;2024-03-23T04:43:52;99209.72;;;7.37;96.11
73860;BME280;62197;51.632;13.700;2024-03-23T04:46:17;99184.91;;;7.51;95.76
73860;BME280;62197;51.632;13.700;2024-03-23T04:48:42;99193.34;;;7.45;95.53
73860;BME280;62197;51.632;13.700;2024-03-23T04:51:09;99199.81;;;7.41;94.99
73860;BME280;62197;51.632;13.700;2024-03-23T04:53:37;99193.34;;;7.35;95.38
73860;BME280;62197;51.632;13.700;2024-03-23T04:56:03;99192.25;;;7.38;95.25
73860;BME280;62197;51.632;13.700;2024-03-23T04:58:29;99204.22;;;7.30;95.08
73860;BME280;62197;51.632;13.700;2024-03-23T05:00:55;99194.59;;;7.31;95.21
73860;BME280;62197;51.632;13.700;2024-03-23T05:03:20;99187.44;;;7.33;95.50
73860;BME280;62197;51.632;13.700;2024-03-23T05:05:46;99187.56;;;7.31;95.92
73860;BME280;62197;51.632;13.700;2024-03-23T05:08:12;99184.66;;;7.35;95.42
73860;BME280;62197;51.632;13.700;2024-03-23T05:10:37;99184.25;;;7.39;95.37
73860;BME280;62197;51.632;13.700;2024-03-23T05:13:03;99175.72;;;7.37;95.27
73860;BME280;62197;51.632;13.700;2024-03-23T05:15:28;99167.19;;;7.35;95.72
73860;BME280;62197;51.632;13.700;2024-03-23T05:17:55;99168.00;;;7.36;95.89
73860;BME280;62197;51.632;13.700;2024-03-23T05:20:20;99153.84;;;7.28;95.70
73860;BME280;62197;51.632;13.700;2024-03-23T05:22:46;99137.88;;;7.31;95.82
73860;BME280;62197;51.632;13.700;2024-03-23T05:25:11;99122.84;;;7.34;95.19
73860;BME280;62197;51.632;13.700;2024-03-23T05:27:37;99103.72;;;7.33;95.11
73860;BME280;62197;51.632;13.700;2024-03-23T05:30:03;99113.06;;;7.36;94.87
73860;BME280;62197;51.632;13.700;2024-03-23T05:32:29;99099.38;;;7.14;95.95
73860;BME280;62197;51.632;13.700;2024-03-23T05:34:54;99083.41;;;7.17;95.69
73860;BME280;62197;51.632;13.700;2024-03-23T05:37:23;99091.94;;;7.19;95.06
73860;BME280;62197;51.632;13.700;2024-03-23T05:39:48;99091.41;;;7.16;95.47
73860;BME280;62197;51.632;13.700;2024-03-23T05:42:17;99088.09;;;7.23;96.05
73860;BME280;62197;51.632;13.700;2024-03-23T05:44:46;99100.88;;;7.26;96.22
73860;BME280;62197;51.632;13.700;2024-03-23T05:47:12;99104.84;;;7.30;94.53
73860;BME280;62197;51.632;13.700;2024-03-23T05:49:42;99094.69;;;7.27;94.01
73860;BME280;62197;51.632;13.700;2024-03-23T05:52:08;99083.47;;;7.35;93.85
73860;BME280;62197;51.632;13.700;2024-03-23T05:54:33;99071.50;;;7.32;93.98
73860;BME280;62197;51.632;13.700;2024-03-23T05:56:59;99077.13;;;7.38;93.95
73860;BME280;62197;51.632;13.700;2024-03-23T05:59:24;99071.63;;;7.41;94.20
73860;BME280;62197;51.632;13.700;2024-03-23T06:01:50;99069.28;;;7.38;94.44
73860;BME280;62197;51.632;13.700;2024-03-23T06:04:15;99060.34;;;7.40;94.70
73860;BME280;62197;51.632;13.700;2024-03-23T06:06:40;99053.31;;;7.41;94.67
73860;BME280;62197;51.632;13.700;2024-03-23T06:09:05;99044.06;;;7.46;94.69
73860;BME280;62197;51.632;13.700;2024-03-23T06:11:31;99040.09;;;7.42;94.79
73860;BME280;62197;51.632;13.700;2024-03-23T06:13:56;99050.16;;;7.37;94.41
73860;BME280;62197;51.632;13.700;2024-03-23T06:16:21;99045.06;;;7.36;95.18
73860;BME280;62197;51.632;13.700;2024-03-23T06:18:50;99038.41;;;7.23;95.15
73860;BME280;62197;51.632;13.700;2024-03-23T06:21:16;99034.84;;;7.15;95.95
73860;BME280;62197;51.632;13.700;2024-03-23T06:23:42;99030.88;;;7.11;95.86
73860;BME280;62197;51.632;13.700;2024-03-23T06:26:07;99023.03;;;7.01;95.97
73860;BME280;62197;51.632;13.700;2024-03-23T06:28:33;99028.16;;;6.93;96.99
73860;BME280;62197;51.632;13.700;2024-03-23T06:30:58;99021.84;;;6.86;97.49
73860;BME280;62197;51.632;13.700;2024-03-23T06:33:23;99014.53;;;6.99;98.26
73860;BME280;62197;51.632;13.700;2024-03-23T06:35:52;99014.81;;;6.96;97.36
73860;BME280;62197;51.632;13.700;2024-03-23T06:38:18;99003.25;;;6.89;98.24
73860;BME280;62197;51.632;13.700;2024-03-23T06:40:43;99002.03;;;6.83;97.93
73860;BME280;62197;51.632;13.700;2024-03-23T06:43:13;99008.28;;;6.73;98.51
73860;BME280;62197;51.632;13.700;2024-03-23T06:45:38;98994.25;;;6.74;98.52
73860;BME280;62197;51.632;13.700;2024-03-23T06:48:04;98986.09;;;6.77;98.78
73860;BME280;62197;51.632;13.700;2024-03-23T06:50:29;98991.31;;;6.77;98.66
73860;BME280;62197;51.632;13.700;2024-03-23T06:52:55;98983.34;;;6.78;98.83
73860;BME280;62197;51.632;13.700;2024-03-23T06:55:20;98983.41;;;6.69;99.37
73860;BME280;62197;51.632;13.700;2024-03-23T06:57:45;98987.25;;;6.64;99.46
73860;BME280;62197;51.632;13.700;2024-03-23T07:00:12;98992.19;;;6.68;99.95
73860;BME280;62197;51.632;13.700;2024-03-23T07:02:38;98987.53;;;6.61;100.00
73860;BME280;62197;51.632;13.700;2024-03-23T07:05:04;98980.66;;;6.60;100.00
73860;BME280;62197;51.632;13.700;2024-03-23T07:07:29;98973.91;;;6.68;100.00
73860;BME280;62197;51.632;13.700;2024-03-23T07:09:55;98959.97;;;6.77;100.00
73860;BME280;62197;51.632;13.700;2024-03-23T07:12:20;98955.28;;;6.80;100.00
73860;BME280;62197;51.632;13.700;2024-03-23T07:14:46;98952.53;;;6.82;100.00
73860;BME280;62197;51.632;13.700;2024-03-23T07:17:11;98943.19;;;6.79;100.00
73860;BME280;62197;51.632;13.700;2024-03-23T07:19:36;98955.56;;;6.77;100.00
73860;BME280;62197;51.632;13.700;2024-03-23T07:22:02;98942.41;;;6.69;100.00
73860;BME280;62197;51.632;13.700;2024-03-23T07:24:27;98958.78;;;6.71;100.00
73860;BME280;62197;51.632;13.700;2024-03-23T07:26:52;98959.22;;;6.57;100.00
73860;BME280;62197;51.632;13.700;2024-03-23T07:29:19;98969.66;;;6.57;100.00
73860;BME280;62197;51.632;13.700;2024-03-23T07:31:44;98967.06;;;6.57;100.00
73860;BME280;62197;51.632;13.700;2024-03-23T07:34:10;98953.16;;;6.56;100.00
73860;BME280;62197;51.632;13.700;2024-03-23T07:36:35;98928.09;;;6.73;100.00
73860;BME280;62197;51.632;13.700;2024-03-23T07:39:00;98912.47;;;6.91;100.00
73860;BME280;62197;51.632;13.700;2024-03-23T07:41:25;98909.16;;;6.89;100.00
73860;BME280;62197;51.632;13.700;2024-03-23T07:43:53;98907.81;;;6.85;100.00
73860;BME280;62197;51.632;13.700;2024-03-23T07:46:18;98902.41;;;6.96;100.00
73860;BME280;62197;51.632;13.700;2024-03-23T07:48:45;98904.34;;;6.94;100.00
73860;BME280;62197;51.632;13.700;2024-03-23T07:53:43;98885.81;;;6.78;100.00
73860;BME280;62197;51.632;13.700;2024-03-23T07:56:10;98885.50;;;6.63;100.00
73860;BME280;62197;51.632;13.700;2024-03-23T07:58:36;98874.63;;;6.68;100.00
73860;BME280;62197;51.632;13.700;2024-03-23T08:01:19;98857.69;;;6.72;100.00
73860;BME280;62197;51.632;13.700;2024-03-23T08:03:45;98849.75;;;6.63;100.00
73860;BME280;62197;51.632;13.700;2024-03-23T08:08:38;98850.44;;;6.66;100.00
73860;BME280;62197;51.632;13.700;2024-03-23T08:11:03;98844.53;;;6.63;100.00
73860;BME280;62197;51.632;13.700;2024-03-23T08:13:29;98832.00;;;6.85;100.00
73860;BME280;62197;51.632;13.700;2024-03-23T08:15:59;98831.44;;;6.91;100.00
73860;BME280;62197;51.632;13.700;2024-03-23T08:18:25;98824.75;;;7.06;100.00
73860;BME280;62197;51.632;13.700;2024-03-23T08:21:03;98818.94;;;7.12;100.00
73860;BME280;62197;51.632;13.700;2024-03-23T08:23:30;98810.78;;;7.15;100.00
73860;BME280;62197;51.632;13.700;2024-03-23T08:26:03;98800.41;;;7.06;100.00
73860;BME280;62197;51.632;13.700;2024-03-23T08:28:29;98801.22;;;7.06;100.00
73860;BME280;62197;51.632;13.700;2024-03-23T08:30:55;98793.91;;;7.10;100.00
73860;BME280;62197;51.632;13.700;2024-03-23T08:33:21;98800.25;;;7.07;100.00
73860;BME280;62197;51.632;13.700;2024-03-23T08:35:56;98790.59;;;6.90;100.00
73860;BME280;62197;51.632;13.700;2024-03-23T08:38:22;98790.50;;;6.82;100.00
73860;BME280;62197;51.632;13.700;2024-03-23T08:40:48;98785.25;;;6.82;100.00
73860;BME280;62197;51.632;13.700;2024-03-23T08:43:13;98778.41;;;6.81;100.00
73860;BME280;62197;51.632;13.700;2024-03-23T08:45:38;98753.31;;;6.70;100.00
73860;BME280;62197;51.632;13.700;2024-03-23T08:48:04;98759.94;;;6.64;100.00
73860;BME280;62197;51.632;13.700;2024-03-23T08:50:29;98759.84;;;6.56;100.00
73860;BME280;62197;51.632;13.700;2024-03-23T08:52:55;98784.47;;;6.54;100.00
73860;BME280;62197;51.632;13.700;2024-03-23T08:55:20;98792.88;;;6.48;100.00
73860;BME280;62197;51.632;13.700;2024-03-23T08:57:45;98786.91;;;6.28;100.00
73860;BME280;62197;51.632;13.700;2024-03-23T09:00:11;98789.66;;;6.26;100.00
73860;BME280;62197;51.632;13.700;2024-03-23T09:02:37;98801.47;;;6.30;100.00
73860;BME280;62197;51.632;13.700;2024-03-23T09:05:02;98811.91;;;6.30;100.00
73860;BME280;62197;51.632;13.700;2024-03-23T09:07:30;98807.13;;;6.26;100.00
73860;BME280;62197;51.632;13.700;2024-03-23T09:09:56;98814.72;;;6.19;100.00
73860;BME280;62197;51.632;13.700;2024-03-23T09:12:21;98813.22;;;6.17;100.00
73860;BME280;62197;51.632;13.700;2024-03-23T09:14:46;98841.81;;;6.09;100.00
73860;BME280;62197;51.632;13.700;2024-03-23T09:17:11;98845.00;;;6.03;100.00
73860;BME280;62197;51.632;13.700;2024-03-23T09:19:37;98857.34;;;6.01;100.00
73860;BME280;62197;51.632;13.700;2024-03-23T09:22:02;98867.94;;;6.09;100.00
73860;BME280;62197;51.632;13.700;2024-03-23T09:24:27;98880.72;;;5.92;100.00
73860;BME280;62197;51.632;13.700;2024-03-23T09:26:53;98896.50;;;5.91;100.00
73860;BME280;62197;51.632;13.700;2024-03-23T09:29:18;98911.03;;;5.84;100.00
73860;BME280;62197;51.632;13.700;2024-03-23T09:31:43;98925.72;;;5.75;100.00
73860;BME280;62197;51.632;13.700;2024-03-23T09:34:08;98935.63;;;5.72;100.00
73860;BME280;62197;51.632;13.700;2024-03-23T09:36:34;98946.59;;;5.56;100.00
73860;BME280;62197;51.632;13.700;2024-03-23T09:38:59;98952.63;;;5.47;100.00
73860;BME280;62197;51.632;13.700;2024-03-23T09:41:24;98949.53;;;5.13;100.00
73860;BME280;62197;51.632;13.700;2024-03-23T09:43:53;98933.41;;;4.98;100.00
73860;BME280;62197;51.632;13.700;2024-03-23T09:46:18;98944.94;;;4.95;100.00
73860;BME280;62197;51.632;13.700;2024-03-23T09:48:46;98951.31;;;4.82;100.00
73860;BME280;62197;51.632;13.700;2024-03-23T09:51:12;98945.44;;;4.59;100.00
73860;BME280;62197;51.632;13.700;2024-03-23T09:53:37;98956.56;;;4.40;100.00
73860;BME280;62197;51.632;13.700;2024-03-23T09:56:02;98976.50;;;4.30;100.00
73860;BME280;62197;51.632;13.700;2024-03-23T09:58:28;98973.31;;;4.26;100.00
73860;BME280;62197;51.632;13.700;2024-03-23T10:00:53;98979.16;;;4.19;100.00
73860;BME280;62197;51.632;13.700;2024-03-23T10:03:18;99003.09;;;4.13;100.00
73860;BME280;62197;51.632;13.700;2024-03-23T10:05:44;99022.06;;;4.04;100.00
73860;BME280;62197;51.632;13.700;2024-03-23T10:10:38;99036.03;;;3.91;100.00
73860;BME280;62197;51.632;13.700;2024-03-23T10:13:04;99033.91;;;3.96;100.00
73860;BME280;62197;51.632;13.700;2024-03-23T10:15:29;99057.34;;;3.74;100.00
73860;BME280;62197;51.632;13.700;2024-03-23T10:17:55;99066.94;;;3.74;100.00
73860;BME280;62197;51.632;13.700;2024-03-23T10:20:22;99071.44;;;3.72;100.00
73860;BME280;62197;51.632;13.700;2024-03-23T10:22:48;99063.38;;;3.86;100.00
73860;BME280;62197;51.632;13.700;2024-03-23T10:25:14;99059.72;;;3.66;100.00
73860;BME280;62197;51.632;13.700;2024-03-23T10:27:39;99058.06;;;3.65;100.00
73860;BME280;62197;51.632;13.700;2024-03-23T10:30:12;99069.41;;;3.64;100.00
73860;BME280;62197;51.632;13.700;2024-03-23T10:32:38;99073.50;;;4.32;100.00
73860;BME280;62197;51.632;13.700;2024-03-23T10:35:19;99073.38;;;4.33;98.36
73860;BME280;62197;51.632;13.700;2024-03-23T10:37:48;99089.13;;;4.32;99.03
73860;BME280;62197;51.632;13.700;2024-03-23T10:40:17;99096.22;;;4.30;98.47
73860;BME280;62197;51.632;13.700;2024-03-23T10:42:44;99101.44;;;4.30;98.79
73860;BME280;62197;51.632;13.700;2024-03-23T10:45:09;99106.28;;;4.35;98.15
73860;BME280;62197;51.632;13.700;2024-03-23T10:47:36;99112.66;;;3.98;99.06
73860;BME280;62197;51.632;13.700;2024-03-23T10:50:02;99129.44;;;3.94;100.00
73860;BME280;62197;51.632;13.700;2024-03-23T10:52:28;99122.38;;;3.85;99.28
73860;BME280;62197;51.632;13.700;2024-03-23T10:54:54;99134.06;;;3.80;99.40
73860;BME280;62197;51.632;13.700;2024-03-23T10:57:25;99152.50;;;3.88;99.11
73860;BME280;62197;51.632;13.700;2024-03-23T10:59:52;99156.06;;;3.76;98.87
73860;BME280;62197;51.632;13.700;2024-03-23T11:02:21;99170.38;;;3.81;99.16
73860;BME280;62197;51.632;13.700;2024-03-23T11:04:46;99174.75;;;3.81;99.44
73860;BME280;62197;51.632;13.700;2024-03-23T11:07:33;99158.06;;;3.72;98.35
73860;BME280;62197;51.632;13.700;2024-03-23T11:09:59;99170.16;;;3.62;98.43
73860;BME280;62197;51.632;13.700;2024-03-23T11:12:29;99187.63;;;3.71;98.92
73860;BME280;62197;51.632;13.700;2024-03-23T11:15:14;99191.28;;;3.80;99.80
73860;BME280;62197;51.632;13.700;2024-03-23T11:17:39;99214.69;;;3.80;99.70
73860;BME280;62197;51.632;13.700;2024-03-23T11:20:05;99247.69;;;3.79;99.86
73860;BME280;62197;51.632;13.700;2024-03-23T11:25:15;99254.22;;;3.96;100.00
73860;BME280;62197;51.632;13.700;2024-03-23T11:27:43;99261.88;;;3.86;99.64
73860;BME280;62197;51.632;13.700;2024-03-23T11:30:19;99254.53;;;3.80;99.72
73860;BME280;62197;51.632;13.700;2024-03-23T11:32:47;99267.78;;;3.88;100.00
73860;BME280;62197;51.632;13.700;2024-03-23T11:35:28;99279.03;;;3.89;98.99
73860;BME280;62197;51.632;13.700;2024-03-23T11:38:08;99279.72;;;3.80;99.09
73860;BME280;62197;51.632;13.700;2024-03-23T11:40:36;99283.88;;;3.82;99.22
73860;BME280;62197;51.632;13.700;2024-03-23T11:43:06;99281.75;;;3.87;99.37
73860;BME280;62197;51.632;13.700;2024-03-23T11:45:36;99286.16;;;4.09;98.68
73860;BME280;62197;51.632;13.700;2024-03-23T11:48:20;99288.88;;;4.08;98.12
73860;BME280;62197;51.632;13.700;2024-03-23T11:50:48;99289.09;;;4.05;98.47
73860;BME280;62197;51.632;13.700;2024-03-23T11:53:15;99296.22;;;4.14;99.33
73860;BME280;62197;51.632;13.700;2024-03-23T11:58:11;99303.75;;;4.28;99.36
73860;BME280;62197;51.632;13.700;2024-03-23T12:00:36;99310.38;;;4.21;98.88
73860;BME280;62197;51.632;13.700;2024-03-23T12:03:02;99313.84;;;4.10;98.93
73860;BME280;62197;51.632;13.700;2024-03-23T12:05:28;99315.84;;;4.07;99.70
73860;BME280;62197;51.632;13.700;2024-03-23T12:07:54;99317.38;;;4.20;99.46
73860;BME280;62197;51.632;13.700;2024-03-23T12:10:20;99319.38;;;4.06;98.53
73860;BME280;62197;51.632;13.700;2024-03-23T12:12:45;99322.81;;;4.17;99.02
73860;BME280;62197;51.632;13.700;2024-03-23T12:15:11;99320.22;;;4.06;99.43
73860;BME280;62197;51.632;13.700;2024-03-23T12:17:38;99322.94;;;4.05;98.19
73860;BME280;62197;51.632;13.700;2024-03-23T12:20:04;99328.38;;;4.13;98.12
73860;BME280;62197;51.632;13.700;2024-03-23T12:22:30;99334.50;;;4.01;98.86
73860;BME280;62197;51.632;13.700;2024-03-23T12:24:55;99337.47;;;4.07;98.25
73860;BME280;62197;51.632;13.700;2024-03-23T12:27:21;99338.31;;;4.19;98.36
73860;BME280;62197;51.632;13.700;2024-03-23T12:29:46;99338.91;;;4.22;97.49
73860;BME280;62197;51.632;13.700;2024-03-23T12:32:13;99329.66;;;4.18;97.71
73860;BME280;62197;51.632;13.700;2024-03-23T12:34:39;99329.22;;;4.47;98.89
73860;BME280;62197;51.632;13.700;2024-03-23T12:37:04;99324.66;;;4.82;96.43
73860;BME280;62197;51.632;13.700;2024-03-23T12:39:31;99326.19;;;4.96;95.79
73860;BME280;62197;51.632;13.700;2024-03-23T12:41:56;99317.81;;;4.70;97.09
73860;BME280;62197;51.632;13.700;2024-03-23T12:44:22;99321.59;;;4.77;96.81
73860;BME280;62197;51.632;13.700;2024-03-23T12:46:47;99319.97;;;5.19;96.08
73860;BME280;62197;51.632;13.700;2024-03-23T12:49:13;99312.19;;;5.82;92.48
73860;BME280;62197;51.632;13.700;2024-03-23T12:51:38;99300.06;;;5.92;89.49
73860;BME280;62197;51.632;13.700;2024-03-23T12:54:04;99302.78;;;5.90;88.80
73860;BME280;62197;51.632;13.700;2024-03-23T12:56:29;99302.03;;;6.30;88.19
73860;BME280;62197;51.632;13.700;2024-03-23T12:58:55;99304.63;;;6.00;88.66
73860;BME280;62197;51.632;13.700;2024-03-23T13:01:25;99301.16;;;7.10;84.69
73860;BME280;62197;51.632;13.700;2024-03-23T13:03:50;99302.81;;;8.15;83.31
73860;BME280;62197;51.632;13.700;2024-03-23T13:06:16;99304.03;;;8.85;75.66
73860;BME280;62197;51.632;13.700;2024-03-23T13:08:46;99291.00;;;8.93;75.61
73860;BME280;62197;51.632;13.700;2024-03-23T13:11:13;99294.00;;;9.95;71.93
73860;BME280;62197;51.632;13.700;2024-03-23T13:13:39;99286.59;;;10.17;69.10
73860;BME280;62197;51.632;13.700;2024-03-23T13:16:05;99295.69;;;9.17;73.29
73860;BME280;62197;51.632;13.700;2024-03-23T13:18:31;99294.88;;;9.35;70.72
73860;BME280;62197;51.632;13.700;2024-03-23T13:20:57;99306.53;;;9.05;72.78
73860;BME280;62197;51.632;13.700;2024-03-23T13:23:22;99297.78;;;7.85;74.30
73860;BME280;62197;51.632;13.700;2024-03-23T13:25:57;99312.03;;;7.73;78.06
73860;BME280;62197;51.632;13.700;2024-03-23T13:28:22;99301.38;;;9.48;67.76
73860;BME280;62197;51.632;13.700;2024-03-23T13:30:52;99306.81;;;7.53;74.21
73860;BME280;62197;51.632;13.700;2024-03-23T13:33:17;99306.25;;;7.59;76.95
73860;BME280;62197;51.632;13.700;2024-03-23T13:35:53;99313.41;;;7.67;79.38
73860;BME280;62197;51.632;13.700;2024-03-23T13:38:18;99294.97;;;9.86;70.70
73860;BME280;62197;51.632;13.700;2024-03-23T13:40:57;99299.66;;;11.27;62.86
73860;BME280;62197;51.632;13.700;2024-03-23T13:43:24;99290.00;;;10.09;65.40
73860;BME280;62197;51.632;13.700;2024-03-23T13:45:53;99292.56;;;8.32;70.76
73860;BME280;62197;51.632;13.700;2024-03-23T13:48:20;99291.91;;;11.17;64.45
73860;BME280;62197;51.632;13.700;2024-03-23T13:50:46;99284.13;;;12.30;59.08
73860;BME280;62197;51.632;13.700;2024-03-23T13:53:13;99280.13;;;14.10;55.04
73860;BME280;62197;51.632;13.700;2024-03-23T13:55:46;99280.41;;;14.74;51.90